createdAt,value
2022-10-13T00:00:16.303Z,69.70
2022-10-13T00:02:44.141Z,69.60
2022-10-13T00:05:12.060Z,69.80
2022-10-13T00:07:39.935Z,70.00
2022-10-13T00:10:08.394Z,71.20
2022-10-13T00:12:37.731Z,70.60
2022-10-13T00:15:08.390Z,70.50
2022-10-13T00:17:37.247Z,70.50
2022-10-13T00:20:05.735Z,70.60
2022-10-13T00:22:33.720Z,71.10
2022-10-13T00:25:01.628Z,71.10
2022-10-13T00:27:29.497Z,70.80
2022-10-13T00:29:58.698Z,70.80
2022-10-13T00:32:26.533Z,70.90
2022-10-13T00:34:54.581Z,71.20
2022-10-13T00:37:22.750Z,71.40
2022-10-13T00:39:50.640Z,71.10
2022-10-13T00:42:18.755Z,70.60
2022-10-13T00:45:01.265Z,70.10
2022-10-13T00:47:29.838Z,69.80
2022-10-13T00:49:57.740Z,69.70
2022-10-13T00:52:25.626Z,69.80
2022-10-13T00:54:53.495Z,70.00
2022-10-13T00:57:22.089Z,70.20
2022-10-13T00:59:50.003Z,70.60
2022-10-13T01:02:19.516Z,70.60
2022-10-13T01:04:47.987Z,70.60
2022-10-13T01:07:16.179Z,70.50
2022-10-13T01:09:44.916Z,70.70
2022-10-13T01:12:19.613Z,71.30
2022-10-13T01:14:50.758Z,71.10
2022-10-13T01:17:24.825Z,70.80
2022-10-13T01:20:15.295Z,70.40
2022-10-13T01:22:48.952Z,70.20
2022-10-13T01:25:27.582Z,70.20
2022-10-13T01:28:04.443Z,70.40
2022-10-13T01:30:33.920Z,70.40
2022-10-13T01:33:10.614Z,70.20
2022-10-13T01:35:46.605Z,70.30
2022-10-13T01:38:18.547Z,70.40
2022-10-13T01:40:48.732Z,71.00
2022-10-13T01:43:18.116Z,70.90
2022-10-13T01:45:50.005Z,70.80
2022-10-13T01:48:19.341Z,71.40
2022-10-13T01:50:52.159Z,70.80
2022-10-13T01:53:20.036Z,71.20
2022-10-13T01:55:53.343Z,71.20
2022-10-13T01:58:21.409Z,70.70
2022-10-13T02:00:57.911Z,70.20
2022-10-13T02:03:31.295Z,69.80
2022-10-13T02:06:02.070Z,69.70
2022-10-13T02:08:40.615Z,69.80
2022-10-13T02:11:11.931Z,69.90
2022-10-13T02:13:41.132Z,70.10
2022-10-13T02:16:12.210Z,70.70
2022-10-13T02:18:40.104Z,70.70
2022-10-13T02:21:11.049Z,70.50
2022-10-13T02:23:38.919Z,70.60
2022-10-13T02:26:08.908Z,70.70
2022-10-13T02:28:37.723Z,71.60
2022-10-13T02:31:06.914Z,71.20
2022-10-13T02:33:36.262Z,71.00
2022-10-13T02:36:04.238Z,70.80
2022-10-13T02:38:32.151Z,70.80
2022-10-13T02:41:01.286Z,70.90
2022-10-13T02:43:29.161Z,71.40
2022-10-13T02:45:57.082Z,71.20
2022-10-13T02:48:24.956Z,70.70
2022-10-13T02:50:54.155Z,70.20
2022-10-13T02:53:22.017Z,69.80
2022-10-13T02:55:49.854Z,69.70
2022-10-13T02:58:17.716Z,69.70
2022-10-13T03:00:45.665Z,69.80
2022-10-13T03:03:13.563Z,70.00
2022-10-13T03:05:41.797Z,70.60
2022-10-13T03:08:11.046Z,70.70
2022-10-13T03:10:38.915Z,70.50
2022-10-13T03:13:06.755Z,70.50
2022-10-13T03:15:34.607Z,71.40
2022-10-13T03:18:05.589Z,70.70
2022-10-13T03:20:33.442Z,71.20
2022-10-13T03:23:01.323Z,71.10
2022-10-13T03:25:30.518Z,70.80
2022-10-13T03:27:58.402Z,70.80
2022-10-13T03:30:26.338Z,70.90
2022-10-13T03:32:54.217Z,71.40
2022-10-13T03:35:22.092Z,71.30
2022-10-13T03:37:49.983Z,71.00
2022-10-13T03:40:17.951Z,70.50
2022-10-13T03:42:47.210Z,70.00
2022-10-13T03:45:15.130Z,69.60
2022-10-13T03:47:42.973Z,69.50
2022-10-13T03:50:11.412Z,69.60
2022-10-13T03:52:39.270Z,69.70
2022-10-13T03:55:07.758Z,69.90
2022-10-13T03:57:35.652Z,70.40
2022-10-13T04:00:10.596Z,70.40
2022-10-13T04:02:40.514Z,70.30
2022-10-13T04:05:08.899Z,70.30
2022-10-13T04:07:36.801Z,70.40
2022-10-13T04:10:11.552Z,70.70
2022-10-13T04:12:41.330Z,71.00
2022-10-13T04:15:11.864Z,70.60
2022-10-13T04:17:39.735Z,70.40
2022-10-13T04:20:09.049Z,70.10
2022-10-13T04:22:37.074Z,70.10
2022-10-13T04:25:05.693Z,70.40
2022-10-13T04:27:34.089Z,70.30
2022-10-13T04:30:02.167Z,70.10
2022-10-13T04:32:31.441Z,70.20
2022-10-13T04:35:01.255Z,70.20
2022-10-13T04:37:29.109Z,70.70
2022-10-13T04:39:56.979Z,70.80
2022-10-13T04:42:24.901Z,70.60
2022-10-13T04:44:52.936Z,70.60
2022-10-13T04:47:22.304Z,70.60
2022-10-13T04:49:51.539Z,70.70
2022-10-13T04:52:19.722Z,71.30
2022-10-13T04:54:48.181Z,71.00
2022-10-13T04:57:16.061Z,70.70
2022-10-13T04:59:43.933Z,70.30
2022-10-13T05:02:11.799Z,69.80
2022-10-13T05:04:39.699Z,69.70
2022-10-13T05:07:24.310Z,69.60
2022-10-13T05:09:52.242Z,69.70
2022-10-13T05:12:20.309Z,69.80
2022-10-13T05:14:49.610Z,70.20
2022-10-13T05:17:17.458Z,70.60
2022-10-13T05:19:45.339Z,70.50
2022-10-13T05:22:14.569Z,70.50
2022-10-13T05:24:42.514Z,70.50
2022-10-13T05:27:11.330Z,70.60
2022-10-13T05:29:39.499Z,71.20
2022-10-13T05:32:07.509Z,71.00
2022-10-13T05:34:35.382Z,70.90
2022-10-13T05:37:03.251Z,70.80
2022-10-13T05:39:35.798Z,70.80
2022-10-13T05:42:03.744Z,71.00
2022-10-13T05:44:31.638Z,71.20
2022-10-13T05:47:02.550Z,70.90
2022-10-13T05:49:32.976Z,70.60
2022-10-13T05:52:02.214Z,70.00
2022-10-13T05:54:31.047Z,69.80
2022-10-13T05:57:02.072Z,69.70
2022-10-13T05:59:30.128Z,69.70
2022-10-13T06:01:58.069Z,69.80
2022-10-13T06:04:28.092Z,70.10
2022-10-13T06:06:55.973Z,70.70
2022-10-13T06:09:23.848Z,70.60
2022-10-13T06:11:51.724Z,70.50
2022-10-13T06:14:20.982Z,70.40
2022-10-13T06:16:49.147Z,70.60
2022-10-13T06:19:17.065Z,70.80
2022-10-13T06:21:44.979Z,71.20
2022-10-13T06:24:12.861Z,70.90
2022-10-13T06:26:41.206Z,70.60
2022-10-13T06:29:09.126Z,70.10
2022-10-13T06:31:38.366Z,69.80
2022-10-13T06:34:06.213Z,69.80
2022-10-13T06:36:34.097Z,69.70
2022-10-13T06:39:01.988Z,69.80
2022-10-13T06:41:29.889Z,70.10
2022-10-13T06:43:57.786Z,70.50
2022-10-13T06:46:25.694Z,70.60
2022-10-13T06:48:54.944Z,70.50
2022-10-13T06:51:23.300Z,70.60
2022-10-13T06:53:51.159Z,70.60
2022-10-13T06:56:24.629Z,70.70
2022-10-13T06:58:52.521Z,71.20
2022-10-13T07:01:20.454Z,70.90
2022-10-13T07:03:49.800Z,70.80
2022-10-13T07:06:21.407Z,70.80
2022-10-13T07:08:51.978Z,70.90
2022-10-13T07:11:20.760Z,71.50
2022-10-13T07:13:52.465Z,71.40
2022-10-13T07:16:20.370Z,70.90
2022-10-13T07:18:48.432Z,70.50
2022-10-13T07:21:16.606Z,70.00
2022-10-13T07:23:45.864Z,69.80
2022-10-13T07:26:14.880Z,69.70
2022-10-13T07:28:43.011Z,69.80
2022-10-13T07:31:11.824Z,70.10
2022-10-13T07:33:39.770Z,70.30
2022-10-13T07:36:08.418Z,70.80
2022-10-13T07:38:36.283Z,70.60
2022-10-13T07:41:06.841Z,70.60
2022-10-13T07:43:34.782Z,70.70
2022-10-13T07:46:06.032Z,70.70
2022-10-13T07:48:33.954Z,71.40
2022-10-13T07:51:05.220Z,71.10
2022-10-13T07:53:35.178Z,71.00
2022-10-13T07:56:03.089Z,70.50
2022-10-13T07:58:32.357Z,70.20
2022-10-13T08:01:00.585Z,70.20
2022-10-13T08:03:28.654Z,70.70
2022-10-13T08:05:56.708Z,70.60
2022-10-13T08:08:24.607Z,70.40
2022-10-13T08:13:26.347Z,70.60
2022-10-13T08:15:55.634Z,71.00
2022-10-13T08:18:24.258Z,71.10
2022-10-13T08:20:59.264Z,70.90
2022-10-13T08:23:32.344Z,70.80
2022-10-13T08:26:00.259Z,70.90
2022-10-13T08:28:29.352Z,71.20
2022-10-13T08:30:58.916Z,71.50
2022-10-13T08:33:27.070Z,71.20
2022-10-13T08:35:55.027Z,70.80
2022-10-13T08:38:25.467Z,70.30
2022-10-13T08:40:53.410Z,70.10
2022-10-13T08:43:23.730Z,70.60
2022-10-13T08:45:51.945Z,70.10
2022-10-13T08:48:22.154Z,70.20
2022-10-13T08:50:52.245Z,70.40
2022-10-13T08:53:23.226Z,70.90
2022-10-13T08:55:52.775Z,70.90
2022-10-13T08:58:22.087Z,70.70
2022-10-13T09:00:51.645Z,70.80
2022-10-13T09:03:24.374Z,70.90
2022-10-13T09:06:02.107Z,71.50
2022-10-13T09:08:30.285Z,71.30
2022-10-13T09:10:59.598Z,70.90
2022-10-13T09:13:27.458Z,71.40
2022-10-13T09:15:56.347Z,70.40
2022-10-13T09:18:29.175Z,70.50
2022-10-13T09:21:26.575Z,70.90
2022-10-13T09:23:54.998Z,70.60
2022-10-13T09:26:23.761Z,70.60
2022-10-13T09:28:51.816Z,70.80
2022-10-13T09:31:21.249Z,70.80
2022-10-13T09:33:58.135Z,71.40
2022-10-13T09:36:26.084Z,71.20
2022-10-13T09:39:09.298Z,71.10
2022-10-13T09:41:38.760Z,71.10
2022-10-13T09:44:12.133Z,71.20
2022-10-13T09:46:41.287Z,71.60
2022-10-13T09:49:26.587Z,71.50
2022-10-13T09:51:59.040Z,71.20
2022-10-13T09:54:28.184Z,70.70
2022-10-13T09:56:58.405Z,70.10
2022-10-13T09:59:33.141Z,70.00
2022-10-13T10:02:02.215Z,69.90
2022-10-13T10:04:34.964Z,70.10
2022-10-13T10:07:03.286Z,70.30
2022-10-13T10:09:35.026Z,70.70
2022-10-13T10:12:03.324Z,71.00
2022-10-13T10:14:33.086Z,70.80
2022-10-13T10:17:05.295Z,70.80
2022-10-13T10:19:45.174Z,70.80
2022-10-13T10:22:16.614Z,71.10
2022-10-13T10:24:47.078Z,71.50
2022-10-13T10:27:17.411Z,71.20
2022-10-13T10:29:47.650Z,71.10
2022-10-13T10:32:26.440Z,71.10
2022-10-13T10:34:58.154Z,71.20
2022-10-13T10:37:36.886Z,71.50
2022-10-13T10:40:11.780Z,71.70
2022-10-13T10:43:03.848Z,71.30
2022-10-13T10:45:34.543Z,70.80
2022-10-13T10:48:03.891Z,70.30
2022-10-13T10:50:34.215Z,70.10
2022-10-13T10:53:03.890Z,70.00
2022-10-13T10:55:33.917Z,70.20
2022-10-13T10:58:08.016Z,70.40
2022-10-13T11:00:38.448Z,70.60
2022-10-13T11:03:09.064Z,71.10
2022-10-13T11:06:04.317Z,71.00
2022-10-13T11:08:41.353Z,70.90
2022-10-13T11:11:36.402Z,71.00
2022-10-13T11:14:30.263Z,71.30
2022-10-13T11:17:17.961Z,71.60
2022-10-13T11:19:46.036Z,71.20
2022-10-13T11:22:17.185Z,70.80
2022-10-13T11:25:02.224Z,70.60
2022-10-13T11:27:41.065Z,70.50
2022-10-13T11:30:43.151Z,71.00
2022-10-13T11:33:36.818Z,70.80
2022-10-13T11:36:33.837Z,70.60
2022-10-13T11:39:10.782Z,70.90
2022-10-13T11:41:42.677Z,70.90
2022-10-13T11:44:12.305Z,71.50
2022-10-13T11:46:47.388Z,71.30
2022-10-13T11:49:57.178Z,71.10
2022-10-13T11:52:55.706Z,71.30
2022-10-13T11:55:33.234Z,71.30
2022-10-13T11:58:11.068Z,71.70
2022-10-13T12:00:38.936Z,72.20
2022-10-13T12:03:06.970Z,71.10
2022-10-13T12:05:35.879Z,70.60
2022-10-13T12:08:05.728Z,70.30
2022-10-13T12:10:37.875Z,70.10
2022-10-13T12:13:08.433Z,70.20
2022-10-13T12:15:37.014Z,70.40
2022-10-13T12:18:20.389Z,70.60
2022-10-13T12:20:53.207Z,71.20
2022-10-13T12:23:21.062Z,71.00
2022-10-13T12:25:56.385Z,71.00
2022-10-13T12:28:25.637Z,71.10
2022-10-13T12:30:54.914Z,71.20
2022-10-13T12:33:27.312Z,71.60
2022-10-13T12:35:55.256Z,71.60
2022-10-13T12:38:23.430Z,71.40
2022-10-13T12:40:53.273Z,71.40
2022-10-13T12:43:26.099Z,71.40
2022-10-13T12:45:54.246Z,71.60
2022-10-13T12:48:30.712Z,72.00
2022-10-13T12:51:18.280Z,71.80
2022-10-13T12:53:46.647Z,71.20
2022-10-13T12:56:27.454Z,70.80
2022-10-13T12:58:55.396Z,70.60
2022-10-13T13:01:31.158Z,70.80
2022-10-13T13:04:00.804Z,71.10
2022-10-13T13:06:34.781Z,70.90
2022-10-13T13:09:30.510Z,70.80
2022-10-13T13:12:24.793Z,70.90
2022-10-13T13:14:54.853Z,71.10
2022-10-13T13:17:53.007Z,71.50
2022-10-13T13:20:21.423Z,71.40
2022-10-13T13:22:50.658Z,71.30
2022-10-13T13:25:18.525Z,71.30
2022-10-13T13:27:50.101Z,71.40
2022-10-13T13:30:19.534Z,72.00
2022-10-13T13:32:47.632Z,71.80
2022-10-13T13:35:15.644Z,71.60
2022-10-13T13:37:45.122Z,71.50
2022-10-13T13:40:16.249Z,71.60
2022-10-13T13:42:44.252Z,71.80
2022-10-13T13:45:14.905Z,72.30
2022-10-13T13:47:42.785Z,71.70
2022-10-13T13:50:14.891Z,71.30
2022-10-13T13:52:45.918Z,70.70
2022-10-13T13:55:14.893Z,70.20
2022-10-13T13:57:43.039Z,70.20
2022-10-13T14:00:12.266Z,70.10
2022-10-13T14:02:41.491Z,70.30
2022-10-13T14:05:09.916Z,70.60
2022-10-13T14:07:37.956Z,71.00
2022-10-13T14:10:06.883Z,71.20
2022-10-13T14:12:34.820Z,71.00
2022-10-13T14:15:02.766Z,71.10
2022-10-13T14:17:30.710Z,71.30
2022-10-13T14:20:00.929Z,71.40
2022-10-13T14:22:28.840Z,71.80
2022-10-13T14:24:56.767Z,71.60
2022-10-13T14:27:24.656Z,71.30
2022-10-13T14:29:53.702Z,71.20
2022-10-13T14:32:21.865Z,71.10
2022-10-13T14:34:49.955Z,71.30
2022-10-13T14:37:22.997Z,71.70
2022-10-13T14:39:51.390Z,71.50
2022-10-13T14:42:19.449Z,71.40
2022-10-13T14:44:47.367Z,71.30
2022-10-13T14:47:15.221Z,71.40
2022-10-13T14:49:43.163Z,71.90
2022-10-13T14:52:11.098Z,71.90
2022-10-13T14:54:44.659Z,71.70
2022-10-13T14:57:15.803Z,71.20
2022-10-13T14:59:43.983Z,71.00
2022-10-13T15:02:13.247Z,70.80
2022-10-13T15:04:52.053Z,71.10
2022-10-13T15:07:20.163Z,71.20
2022-10-13T15:10:04.219Z,71.00
2022-10-13T15:12:33.170Z,71.10
2022-10-13T15:15:01.038Z,71.10
2022-10-13T15:17:28.984Z,71.70
2022-10-13T15:19:56.889Z,71.70
2022-10-13T15:22:24.927Z,71.40
2022-10-13T15:24:54.154Z,71.40
2022-10-13T15:27:22.084Z,71.50
2022-10-13T15:29:49.994Z,71.90
2022-10-13T15:32:20.182Z,72.00
2022-10-13T15:34:55.774Z,71.80
2022-10-13T15:37:23.664Z,71.70
2022-10-13T15:39:56.238Z,71.80
2022-10-13T15:42:26.673Z,71.70
2022-10-13T15:45:09.233Z,72.30
2022-10-13T15:47:38.105Z,72.20
2022-10-13T15:50:06.559Z,71.70
2022-10-13T15:52:38.005Z,71.20
2022-10-13T15:55:06.526Z,70.70
2022-10-13T15:57:35.959Z,70.40
2022-10-13T16:00:04.193Z,70.40
2022-10-13T16:02:40.300Z,70.50
2022-10-13T16:05:09.755Z,70.80
2022-10-13T16:07:37.648Z,70.90
2022-10-13T16:10:05.924Z,71.40
2022-10-13T16:12:35.169Z,71.20
2022-10-13T16:15:03.039Z,71.30
2022-10-13T16:17:30.908Z,71.30
2022-10-13T16:19:58.796Z,71.40
2022-10-13T16:22:26.956Z,71.90
2022-10-13T16:24:54.816Z,71.90
2022-10-13T16:27:23.922Z,71.50
2022-10-13T16:29:53.365Z,71.80
2022-10-13T16:32:21.487Z,70.80
2022-10-13T16:34:49.739Z,70.80
2022-10-13T16:37:20.569Z,71.10
2022-10-13T16:39:51.708Z,71.00
2022-10-13T16:42:19.847Z,70.90
2022-10-13T16:44:47.755Z,71.00
2022-10-13T16:47:18.692Z,71.00
2022-10-13T16:49:47.248Z,71.40
2022-10-13T16:52:15.956Z,71.60
2022-10-13T16:54:44.897Z,71.40
2022-10-13T16:57:12.780Z,71.30
2022-10-13T16:59:40.657Z,71.40
2022-10-13T17:02:12.928Z,71.40
2022-10-13T17:04:43.211Z,72.00
2022-10-13T17:07:11.113Z,71.90
2022-10-13T17:09:39.000Z,71.60
2022-10-13T17:12:07.543Z,71.20
2022-10-13T17:14:35.388Z,70.90
2022-10-13T17:17:03.287Z,70.80
2022-10-13T17:19:31.180Z,71.30
2022-10-13T17:22:00.433Z,72.00
2022-10-13T17:24:29.758Z,71.10
2022-10-13T17:26:57.689Z,71.00
2022-10-13T17:29:25.753Z,71.20
2022-10-13T17:31:54.560Z,71.30
2022-10-13T17:34:23.662Z,71.80
2022-10-13T17:36:52.494Z,71.60
2022-10-13T17:39:21.747Z,71.50
2022-10-13T17:41:49.641Z,71.60
2022-10-13T17:44:20.414Z,71.60
2022-10-13T17:46:48.461Z,72.20
2022-10-13T17:49:16.497Z,72.10
2022-10-13T17:51:44.749Z,71.80
2022-10-13T17:54:16.163Z,71.40
2022-10-13T17:56:46.407Z,71.10
2022-10-13T17:59:14.407Z,71.00
2022-10-13T18:01:42.511Z,71.30
2022-10-13T18:04:12.004Z,71.20
2022-10-13T18:06:40.848Z,71.10
2022-10-13T18:09:09.620Z,71.10
2022-10-13T18:11:37.917Z,71.30
2022-10-13T18:14:08.295Z,71.70
2022-10-13T18:16:38.816Z,71.60
2022-10-13T18:19:06.696Z,71.50
2022-10-13T18:21:34.558Z,71.60
2022-10-13T18:24:02.782Z,71.70
2022-10-13T18:26:32.688Z,72.10
2022-10-13T18:29:00.654Z,72.00
2022-10-13T18:31:30.776Z,71.60
2022-10-13T18:34:00.292Z,71.20
2022-10-13T18:36:30.764Z,71.00
2022-10-13T18:39:02.528Z,71.10
2022-10-13T18:41:30.463Z,71.40
2022-10-13T18:43:58.410Z,71.40
2022-10-13T18:46:26.329Z,71.20
2022-10-13T18:48:55.956Z,71.20
2022-10-13T18:51:24.059Z,71.30
2022-10-13T18:53:51.905Z,71.70
2022-10-13T18:56:23.253Z,72.70
2022-10-13T18:58:54.540Z,71.70
2022-10-13T19:01:26.861Z,71.70
2022-10-13T19:03:56.159Z,72.00
2022-10-13T19:06:26.647Z,71.90
2022-10-13T19:08:55.384Z,72.30
2022-10-13T19:11:23.497Z,72.00
2022-10-13T19:13:51.608Z,71.90
2022-10-13T19:16:20.466Z,71.90
2022-10-13T19:18:48.601Z,72.00
2022-10-13T19:21:17.861Z,72.40
2022-10-13T19:23:45.727Z,72.40
2022-10-13T19:26:21.030Z,72.10
2022-10-13T19:28:49.054Z,71.50
2022-10-13T19:31:18.027Z,70.90
2022-10-13T19:33:47.066Z,70.50
2022-10-13T19:36:22.684Z,70.30
2022-10-13T19:38:51.204Z,70.40
2022-10-13T19:41:19.219Z,70.60
2022-10-13T19:43:47.105Z,70.80
2022-10-13T19:46:14.963Z,71.50
2022-10-13T19:48:43.234Z,71.30
2022-10-13T19:51:14.115Z,71.30
2022-10-13T19:53:43.356Z,71.30
2022-10-13T19:56:22.465Z,71.40
2022-10-13T19:58:50.379Z,71.90
2022-10-13T20:01:19.851Z,72.00
2022-10-13T20:03:47.931Z,71.80
2022-10-13T20:06:15.874Z,71.70
2022-10-13T20:08:45.891Z,71.80
2022-10-13T20:11:19.330Z,72.00
2022-10-13T20:13:50.281Z,72.40
2022-10-13T20:16:19.833Z,72.10
2022-10-13T20:18:51.703Z,71.60
2022-10-13T20:21:19.599Z,71.10
2022-10-13T20:23:49.119Z,70.90
2022-10-13T20:26:17.008Z,70.80
2022-10-13T20:28:45.844Z,70.80
2022-10-13T20:31:14.206Z,70.90
2022-10-13T20:33:42.160Z,71.10
2022-10-13T20:36:11.586Z,71.80
2022-10-13T20:38:39.534Z,71.70
2022-10-13T20:41:09.578Z,71.60
2022-10-13T20:43:37.907Z,71.60
2022-10-13T20:46:07.149Z,72.50
2022-10-13T20:48:57.672Z,72.10
2022-10-13T20:51:23.923Z,72.30
2022-10-13T20:53:51.979Z,71.80
2022-10-13T20:56:22.338Z,71.50
2022-10-13T20:58:50.297Z,71.40
2022-10-13T21:01:18.477Z,71.20
2022-10-13T21:03:46.373Z,71.60
2022-10-13T21:06:16.227Z,71.60
2022-10-13T21:08:46.382Z,71.40
2022-10-13T21:11:15.524Z,71.40
2022-10-13T21:13:44.988Z,71.50
2022-10-13T21:16:13.797Z,72.10
2022-10-13T21:18:41.678Z,72.00
2022-10-13T21:21:10.923Z,71.80
2022-10-13T21:23:40.697Z,71.80
2022-10-13T21:26:10.046Z,71.80
2022-10-13T21:28:38.578Z,72.10
2022-10-13T21:31:08.698Z,72.40
2022-10-13T21:33:37.240Z,72.10
2022-10-13T21:36:07.159Z,71.70
2022-10-13T21:38:35.132Z,71.20
2022-10-13T21:41:04.921Z,70.80
2022-10-13T21:43:32.852Z,70.60
2022-10-13T21:46:10.341Z,70.80
2022-10-13T21:48:43.428Z,70.90
2022-10-13T21:51:15.546Z,71.20
2022-10-13T21:53:43.652Z,71.80
2022-10-13T21:56:12.309Z,71.70
2022-10-13T21:58:40.291Z,71.60
2022-10-13T22:01:08.180Z,71.60
2022-10-13T22:03:37.587Z,71.80
2022-10-13T22:06:06.940Z,72.00
2022-10-13T22:08:38.643Z,72.40
2022-10-13T22:11:13.921Z,71.90
2022-10-13T22:13:41.796Z,71.60
2022-10-13T22:16:11.047Z,71.40
2022-10-13T22:18:43.238Z,71.20
2022-10-13T22:21:12.459Z,71.60
2022-10-13T22:23:40.322Z,71.60
2022-10-13T22:26:08.883Z,71.50
2022-10-13T22:28:37.616Z,71.50
2022-10-13T22:31:06.056Z,71.60
2022-10-13T22:33:35.308Z,72.00
2022-10-13T22:36:08.861Z,72.20
2022-10-13T22:38:36.806Z,72.00
2022-10-13T22:41:05.036Z,72.50
2022-10-13T22:43:33.042Z,71.90
2022-10-13T22:46:11.968Z,72.00
2022-10-13T22:48:42.725Z,72.50
2022-10-13T22:51:15.146Z,72.30
2022-10-13T22:53:43.022Z,72.00
2022-10-13T22:56:12.468Z,71.40
2022-10-13T22:58:40.410Z,70.90
2022-10-13T23:01:08.850Z,70.80
2022-10-13T23:03:36.812Z,70.80
2022-10-13T23:06:04.983Z,70.90
2022-10-13T23:08:34.327Z,71.20
2022-10-13T23:11:02.224Z,71.70
2022-10-13T23:13:30.130Z,71.70
2022-10-13T23:16:02.337Z,71.60
2022-10-13T23:18:35.018Z,71.60
2022-10-13T23:21:05.737Z,71.70
2022-10-13T23:23:35.078Z,72.10
2022-10-13T23:26:04.418Z,72.30
2022-10-13T23:28:32.574Z,72.10
2022-10-13T23:31:02.178Z,71.60
2022-10-13T23:33:30.308Z,71.40
2022-10-13T23:35:58.802Z,71.20
2022-10-13T23:38:26.834Z,71.50
2022-10-13T23:40:56.061Z,71.60
2022-10-13T23:43:23.963Z,71.50
2022-10-13T23:45:51.815Z,71.40
2022-10-13T23:48:19.691Z,71.50
2022-10-13T23:50:47.798Z,71.60
2022-10-13T23:53:15.684Z,72.20
2022-10-13T23:55:43.543Z,72.10
2022-10-13T23:58:13.082Z,71.90
